Terminal Aerodrome Forecast
Issued by NWS Grand Junction, CO

Home | Current Version | Previous Version | Text Only | Print | Product List | Glossary On
Versions: 1 2 3 4 5 6 7 8 9 10 11 12 13 14 15 16 17 18 19 20 21
000
FTUS45 KGJT 212337
TAFGJT
TAF
KGJT 212337Z 2200/2224 32006KT P6SM SCT060 OVC100
     FM220200 14005KT P6SM SCT050 BKN060
     FM220800 08004KT P6SM VCSH SCT040 BKN050
     FM221700 32005KT P6SM VCSH BKN035=

USA.gov is the U.S. government's official web portal to all federal, state and local government web resources and services.